Time;durP1;ratioP1;P1;durP2;ratioP2;P2;SDS_P1;SDS_P2;PMS_P1;PMS_P2;Temp;Humidity;BMP_temperature;BMP_pressure;BME280_temperature;BME280_humidity;BME280_pressure;Samples;Min_cycle;Max_cycle;Signal;HPM_P1;HPM_P2
2023/03/12 00:00:31;;;;;;;12.45;8.80;;;-1.00;99.90;;;;;;5063934;28;20048;-38
2023/03/12 00:02:57;;;;;;;10.35;7.47;;;-1.00;99.90;;;;;;5057793;28;20051;-51
2023/03/12 00:05:24;;;;;;;13.23;7.75;;;-1.00;99.90;;;;;;5058509;28;20390;-41
2023/03/12 00:07:51;;;;;;;14.90;7.38;;;-1.00;99.90;;;;;;5058334;28;20052;-47
2023/03/12 00:10:18;;;;;;;12.77;7.53;;;-1.00;99.90;;;;;;5059251;28;20056;-45
2023/03/12 00:12:44;;;;;;;12.70;7.40;;;-1.00;99.90;;;;;;5058123;28;20479;-46
2023/03/12 00:15:09;;;;;;;9.50;7.38;;;-1.00;99.90;;;;;;5058386;28;20051;-46
2023/03/12 00:17:35;;;;;;;13.35;7.60;;;-1.00;99.90;;;;;;5062791;28;20127;-45
2023/03/12 00:20:02;;;;;;;9.63;6.95;;;-1.00;99.90;;;;;;5061152;28;20394;-44
2023/03/12 00:22:28;;;;;;;10.55;6.72;;;-1.00;99.90;;;;;;5056152;28;20454;-46
2023/03/12 00:24:55;;;;;;;11.52;7.50;;;-1.10;99.90;;;;;;5058536;28;20120;-44
2023/03/12 00:27:22;;;;;;;11.98;7.18;;;-1.10;99.90;;;;;;5058557;28;20407;-45
2023/03/12 00:29:48;;;;;;;9.63;7.63;;;-1.00;99.90;;;;;;5044781;28;20040;-44
2023/03/12 00:32:15;;;;;;;11.98;7.45;;;-1.00;99.90;;;;;;5068451;28;20036;-40
2023/03/12 00:34:41;;;;;;;11.85;7.38;;;-0.90;99.90;;;;;;5078114;28;20143;-46
2023/03/12 00:37:07;;;;;;;14.20;7.20;;;-0.90;99.90;;;;;;5062305;28;20080;-46
2023/03/12 00:39:33;;;;;;;15.07;7.53;;;-0.90;99.90;;;;;;5068617;28;20123;-47
2023/03/12 00:41:59;;;;;;;14.70;8.13;;;-0.80;99.90;;;;;;5078351;28;20048;-40
2023/03/12 00:44:25;;;;;;;12.10;8.27;;;-0.80;99.90;;;;;;5078018;28;20040;-38
2023/03/12 00:46:50;;;;;;;12.07;7.30;;;-0.80;99.90;;;;;;5079005;28;20494;-42
2023/03/12 00:49:16;;;;;;;13.95;8.60;;;-0.80;99.90;;;;;;5077429;28;20059;-42
2023/03/12 00:51:42;;;;;;;11.88;7.30;;;-0.80;99.90;;;;;;5076138;28;20075;-41
2023/03/12 00:54:08;;;;;;;14.27;7.88;;;-0.80;99.90;;;;;;5057703;28;20072;-46
2023/03/12 00:56:33;;;;;;;12.27;7.82;;;-0.90;99.90;;;;;;5058205;28;20036;-45
2023/03/12 00:58:59;;;;;;;11.55;8.00;;;-0.80;99.90;;;;;;5057850;28;20072;-38
2023/03/12 01:01:26;;;;;;;12.10;7.88;;;-0.90;99.90;;;;;;5058098;28;20049;-44
2023/03/12 01:03:52;;;;;;;13.85;8.27;;;-0.80;99.90;;;;;;5054404;28;20059;-45
2023/03/12 01:06:19;;;;;;;11.85;7.60;;;-0.80;99.90;;;;;;5057673;28;20048;-42
2023/03/12 01:08:44;;;;;;;12.02;7.88;;;-0.80;99.90;;;;;;5076613;28;20048;-41
2023/03/12 01:11:16;;;;;;;14.35;7.65;;;-0.70;99.90;;;;;;5078317;28;20096;-49
2023/03/12 01:13:42;;;;;;;14.18;7.57;;;-0.70;99.90;;;;;;5076338;28;20042;-46
2023/03/12 01:16:08;;;;;;;11.32;8.55;;;-0.70;99.90;;;;;;5078099;28;20048;-48
2023/03/12 01:18:35;;;;;;;13.52;7.95;;;-0.70;99.90;;;;;;5064767;28;20093;-39
2023/03/12 01:21:01;;;;;;;17.67;7.78;;;-0.70;99.90;;;;;;5077490;28;20155;-43
2023/03/12 01:23:26;;;;;;;11.45;7.80;;;-0.70;99.90;;;;;;5077370;28;20127;-39
2023/03/12 01:25:54;;;;;;;11.07;7.60;;;-0.60;99.90;;;;;;5077074;28;20108;-41
2023/03/12 01:28:21;;;;;;;13.23;9.13;;;-0.60;99.90;;;;;;5067044;28;20049;-43
2023/03/12 01:30:47;;;;;;;15.38;8.88;;;-0.60;99.90;;;;;;5061951;28;20040;-39
2023/03/12 01:33:13;;;;;;;11.80;8.40;;;-0.60;99.90;;;;;;5074230;28;20052;-47
2023/03/12 01:35:39;;;;;;;14.52;8.80;;;-0.60;99.90;;;;;;5074836;28;20549;-48
2023/03/12 01:38:07;;;;;;;17.02;8.27;;;-0.60;99.90;;;;;;5048533;28;20036;-42
2023/03/12 01:40:34;;;;;;;13.00;8.32;;;-0.60;99.90;;;;;;5048492;28;20144;-42
2023/03/12 01:43:20;;;;;;;14.63;7.55;;;-0.60;99.90;;;;;;5047518;28;20122;-43
2023/03/12 01:46:07;;;;;;;12.57;8.38;;;-0.60;99.90;;;;;;5060113;28;20055;-43
2023/03/12 01:49:07;;;;;;;13.18;8.25;;;-0.60;99.90;;;;;;5075207;28;20048;-39
2023/03/12 01:51:48;;;;;;;13.88;9.60;;;-0.50;99.90;;;;;;5075328;28;20666;-48
2023/03/12 01:54:21;;;;;;;13.00;8.02;;;-0.50;99.90;;;;;;5072794;28;20040;-48
2023/03/12 01:56:47;;;;;;;;;;;-0.40;99.90;;;;;;5048173;28;20041;-42
2023/03/12 01:59:17;;;;;;;13.20;7.55;;;-0.40;99.90;;;;;;5067310;28;19920;-38
2023/03/12 02:01:44;;;;;;;14.02;7.85;;;-0.40;99.90;;;;;;5067728;28;20148;-39
2023/03/12 02:04:10;;;;;;;10.60;7.85;;;-0.40;99.90;;;;;;5073184;28;20044;-45
2023/03/12 02:06:45;;;;;;;11.20;7.63;;;-0.40;99.90;;;;;;5074443;28;20411;-39
2023/03/12 02:09:12;;;;;;;16.48;8.77;;;-0.30;99.90;;;;;;5064304;28;20052;-45
2023/03/12 02:11:37;;;;;;;11.68;7.97;;;-0.30;99.90;;;;;;5056306;28;20077;-48
2023/03/12 02:14:03;;;;;;;13.90;7.85;;;-0.20;99.90;;;;;;5073439;28;20131;-38
2023/03/12 02:16:29;;;;;;;11.63;7.63;;;-0.20;99.90;;;;;;5072875;28;20082;-49
2023/03/12 02:18:56;;;;;;;11.25;7.72;;;-0.20;99.90;;;;;;5074292;28;20044;-44
2023/03/12 02:21:26;;;;;;;15.27;8.02;;;-0.20;99.90;;;;;;5058938;28;20056;-46
2023/03/12 02:24:24;;;;;;;12.23;7.75;;;-0.10;99.90;;;;;;5072476;28;20052;-46
2023/03/12 02:26:51;;;;;;;11.90;7.75;;;-0.10;99.90;;;;;;5027476;28;20052;-46
2023/03/12 02:29:16;;;;;;;10.40;6.93;;;-0.20;99.90;;;;;;5037010;28;20102;-49
2023/03/12 02:31:49;;;;;;;14.77;7.50;;;-0.10;99.90;;;;;;5065835;28;20056;-42
2023/03/12 02:34:15;;;;;;;10.15;6.47;;;-0.10;99.90;;;;;;5049816;28;20044;-45
2023/03/12 02:36:40;;;;;;;10.00;7.15;;;-0.10;99.90;;;;;;5040987;28;20084;-44
2023/03/12 02:39:06;;;;;;;10.38;6.70;;;-0.10;99.90;;;;;;5031775;28;20203;-44
2023/03/12 02:41:38;;;;;;;11.95;8.35;;;-0.10;99.90;;;;;;5020257;28;20150;-44
2023/03/12 02:44:13;;;;;;;11.75;6.47;;;0.00;99.90;;;;;;5017958;28;20067;-46
2023/03/12 02:46:42;;;;;;;14.20;7.70;;;0.00;99.90;;;;;;5039615;28;20053;-47
2023/03/12 02:49:11;;;;;;;12.40;7.07;;;0.00;99.90;;;;;;5049828;28;20087;-42
2023/03/12 02:51:37;;;;;;;11.30;7.15;;;0.00;99.90;;;;;;5038878;28;20255;-50
2023/03/12 02:54:03;;;;;;;11.18;7.78;;;0.00;99.90;;;;;;5045606;28;20531;-39
2023/03/12 02:56:29;;;;;;;12.38;7.25;;;0.00;99.90;;;;;;5038440;28;20541;-44
2023/03/12 02:58:54;;;;;;;10.13;7.03;;;0.00;99.90;;;;;;5013000;28;20049;-46
2023/03/12 03:01:20;;;;;;;17.67;6.97;;;0.10;99.90;;;;;;5011609;28;20041;-47
2023/03/12 03:03:46;;;;;;;10.65;7.07;;;0.00;99.90;;;;;;5053830;28;20056;-42
2023/03/12 03:06:12;;;;;;;12.57;6.78;;;0.00;99.90;;;;;;5070581;28;20112;-43
2023/03/12 03:08:38;;;;;;;11.52;6.38;;;0.00;99.90;;;;;;5072594;28;20518;-47
2023/03/12 03:11:05;;;;;;;12.15;6.47;;;0.10;99.90;;;;;;5073723;28;20048;-44
2023/03/12 03:13:32;;;;;;;11.38;6.18;;;0.10;99.90;;;;;;5070038;28;20036;-46
2023/03/12 03:15:58;;;;;;;12.63;6.97;;;0.10;99.90;;;;;;5072976;28;20431;-43
2023/03/12 03:18:24;;;;;;;12.52;6.88;;;0.10;99.90;;;;;;5072622;28;20041;-47
2023/03/12 03:20:58;;;;;;;11.25;6.15;;;0.10;99.90;;;;;;5073294;28;20044;-49
2023/03/12 03:23:24;;;;;;;;;;;0.10;99.90;;;;;;5072862;28;20211;-44
2023/03/12 03:25:51;;;;;;;8.77;5.70;;;0.10;99.90;;;;;;5059775;28;20344;-45
2023/03/12 03:28:22;;;;;;;9.95;6.22;;;0.10;99.90;;;;;;5064052;28;20051;-39
2023/03/12 03:30:48;;;;;;;11.18;6.20;;;0.10;99.90;;;;;;5062200;28;20445;-40
2023/03/12 03:33:14;;;;;;;8.10;6.05;;;0.10;99.90;;;;;;5069885;28;20040;-44
2023/03/12 03:35:40;;;;;;;9.88;5.50;;;0.20;99.90;;;;;;5068781;28;20800;-42
2023/03/12 03:38:06;;;;;;;10.80;5.65;;;0.10;99.90;;;;;;5045383;28;20040;-45
2023/03/12 03:40:32;;;;;;;10.13;5.78;;;0.20;99.90;;;;;;5054853;28;20063;-43
2023/03/12 03:42:57;;;;;;;15.18;5.90;;;0.20;99.90;;;;;;5088323;28;20151;-42
2023/03/12 03:45:23;;;;;;;11.43;5.57;;;0.20;99.90;;;;;;5055406;28;20048;-44
2023/03/12 03:47:49;;;;;;;10.50;5.65;;;0.20;99.90;;;;;;5055596;28;20040;-48
2023/03/12 03:50:15;;;;;;;14.65;5.93;;;0.20;99.90;;;;;;5056027;28;20441;-44
2023/03/12 03:52:40;;;;;;;11.88;5.57;;;0.20;99.90;;;;;;5054289;28;20532;-42
2023/03/12 03:55:07;;;;;;;12.75;5.60;;;0.20;99.90;;;;;;5055898;28;20131;-45
2023/03/12 03:57:32;;;;;;;6.75;5.22;;;0.20;99.90;;;;;;5055302;28;20044;-39
2023/03/12 03:59:59;;;;;;;10.60;5.28;;;0.30;99.90;;;;;;5068218;28;20522;-46
2023/03/12 04:02:26;;;;;;;11.70;6.70;;;0.20;99.90;;;;;;5062093;28;20482;-45
2023/03/12 04:04:52;;;;;;;9.77;6.05;;;0.30;99.90;;;;;;5075567;28;20502;-43
2023/03/12 04:07:17;;;;;;;7.78;5.55;;;0.30;99.90;;;;;;5075961;28;20055;-40
2023/03/12 04:09:43;;;;;;;9.32;6.18;;;0.30;99.90;;;;;;5074756;28;20120;-45
2023/03/12 04:12:09;;;;;;;7.40;5.40;;;0.30;99.90;;;;;;5075667;28;20176;-44
2023/03/12 04:14:38;;;;;;;8.80;5.35;;;0.30;99.90;;;;;;5075916;28;20047;-42
2023/03/12 04:17:04;;;;;;;12.05;6.07;;;0.30;99.90;;;;;;5076760;28;20161;-44
2023/03/12 04:19:30;;;;;;;9.00;5.72;;;0.40;99.90;;;;;;5075923;28;20145;-44
2023/03/12 04:21:56;;;;;;;12.40;6.05;;;0.40;99.90;;;;;;5076077;28;20527;-46
2023/03/12 04:24:21;;;;;;;9.80;4.72;;;0.40;99.90;;;;;;5061960;28;20114;-46
2023/03/12 04:26:47;;;;;;;8.48;5.05;;;0.50;99.90;;;;;;5076117;28;20051;-44
2023/03/12 04:29:13;;;;;;;9.88;5.43;;;0.50;99.90;;;;;;5050209;28;20049;-40
2023/03/12 04:31:39;;;;;;;11.70;5.30;;;0.50;99.90;;;;;;5074034;28;20093;-48
2023/03/12 04:34:04;;;;;;;10.75;6.38;;;0.50;99.90;;;;;;5075375;28;20070;-43
2023/03/12 04:36:31;;;;;;;10.02;5.82;;;0.50;99.90;;;;;;5054125;28;20048;-41
2023/03/12 04:38:56;;;;;;;13.15;6.28;;;0.50;99.90;;;;;;5056831;28;20052;-44
2023/03/12 04:41:22;;;;;;;8.07;5.38;;;0.50;99.90;;;;;;5074602;28;20146;-42
2023/03/12 04:43:48;;;;;;;10.52;5.80;;;0.60;99.90;;;;;;5074877;28;20469;-43
2023/03/12 04:46:13;;;;;;;11.90;5.55;;;0.60;99.90;;;;;;5062505;28;20446;-46
2023/03/12 04:48:39;;;;;;;12.38;6.57;;;0.60;99.90;;;;;;5063214;28;20049;-42
2023/03/12 04:51:05;;;;;;;7.70;5.22;;;0.60;99.90;;;;;;5069579;28;20049;-44
2023/03/12 04:53:31;;;;;;;11.25;5.50;;;0.70;99.90;;;;;;5052848;28;20093;-43
2023/03/12 04:55:57;;;;;;;11.48;5.57;;;0.70;99.90;;;;;;5054690;28;20040;-44
2023/03/12 04:58:22;;;;;;;11.07;5.28;;;0.80;99.90;;;;;;5068600;28;20147;-39
2023/03/12 05:00:49;;;;;;;10.68;5.50;;;0.80;99.90;;;;;;5052517;28;20126;-50
2023/03/12 05:03:16;;;;;;;10.63;5.63;;;0.90;99.90;;;;;;5061593;28;20470;-45
2023/03/12 05:05:41;;;;;;;8.93;5.05;;;0.90;99.90;;;;;;5071688;28;20040;-46
2023/03/12 05:08:07;;;;;;;12.05;5.22;;;0.90;99.90;;;;;;5074798;28;20059;-49
2023/03/12 05:10:33;;;;;;;12.48;5.18;;;0.90;99.90;;;;;;5075385;28;20049;-39
2023/03/12 05:12:59;;;;;;;8.57;6.13;;;0.90;99.90;;;;;;5073720;28;20070;-48
2023/03/12 05:15:25;;;;;;;9.15;5.07;;;0.90;99.90;;;;;;5074954;28;20444;-43
2023/03/12 05:17:50;;;;;;;8.93;5.28;;;0.90;99.90;;;;;;5075045;28;20044;-46
2023/03/12 05:20:16;;;;;;;8.27;5.45;;;0.90;99.90;;;;;;5074856;28;20177;-43
2023/03/12 05:22:42;;;;;;;8.27;4.90;;;0.90;99.90;;;;;;5074302;28;20051;-44
2023/03/12 05:25:08;;;;;;;9.35;4.93;;;0.90;99.90;;;;;;5074900;28;20047;-46
2023/03/12 05:27:35;;;;;;;10.18;4.70;;;0.90;99.90;;;;;;5075307;28;20056;-47
2023/03/12 05:30:00;;;;;;;9.95;5.45;;;0.90;99.90;;;;;;5042037;28;20048;-43
2023/03/12 05:32:26;;;;;;;11.73;5.68;;;0.90;99.90;;;;;;5053129;28;20380;-44
2023/03/12 05:34:52;;;;;;;9.95;5.32;;;0.90;99.90;;;;;;5053289;28;20045;-39
2023/03/12 05:37:17;;;;;;;7.13;5.15;;;0.90;99.90;;;;;;5042846;28;20120;-43
2023/03/12 05:39:45;;;;;;;8.20;4.90;;;0.90;99.90;;;;;;5053027;28;20473;-39
2023/03/12 05:42:14;;;;;;;11.10;5.43;;;0.90;99.90;;;;;;5053884;28;20052;-46
2023/03/12 05:44:40;;;;;;;9.98;4.80;;;0.90;99.90;;;;;;5053674;28;20450;-44
2023/03/12 05:47:06;;;;;;;12.25;5.07;;;0.90;99.90;;;;;;5054985;28;20160;-42
2023/03/12 05:49:32;;;;;;;8.43;5.13;;;0.90;99.90;;;;;;5054646;28;20131;-45
2023/03/12 05:51:58;;;;;;;7.88;4.90;;;0.90;99.90;;;;;;5052294;28;20329;-42
2023/03/12 05:54:24;;;;;;;8.23;5.30;;;0.90;99.90;;;;;;5053498;28;20589;-46
2023/03/12 05:56:50;;;;;;;9.00;6.03;;;0.90;99.90;;;;;;5052974;28;20085;-44
2023/03/12 05:59:16;;;;;;;9.45;5.75;;;0.90;99.90;;;;;;5052373;28;20075;-53
2023/03/12 06:01:42;;;;;;;8.68;5.70;;;0.90;99.90;;;;;;5053870;28;20604;-41
2023/03/12 06:04:08;;;;;;;10.35;5.35;;;0.90;99.90;;;;;;5053321;28;20040;-48
2023/03/12 06:06:35;;;;;;;11.52;5.55;;;0.90;99.90;;;;;;5053242;28;20912;-42
2023/03/12 06:09:02;;;;;;;9.10;5.35;;;0.90;99.90;;;;;;5053965;28;20518;-42
2023/03/12 06:11:29;;;;;;;8.70;5.10;;;0.90;99.90;;;;;;5052213;28;20192;-38
2023/03/12 06:13:56;;;;;;;8.80;5.60;;;0.90;99.90;;;;;;5053277;28;20052;-47
2023/03/12 06:16:27;;;;;;;10.23;5.10;;;1.00;99.90;;;;;;5052335;28;20084;-45
2023/03/12 06:18:54;;;;;;;16.45;6.70;;;1.00;99.90;;;;;;5052136;28;20052;-41
2023/03/12 06:21:23;;;;;;;11.30;6.50;;;1.00;99.90;;;;;;5051453;28;20521;-42
2023/03/12 06:23:49;;;;;;;10.00;5.30;;;1.00;99.90;;;;;;5052948;28;20044;-45
2023/03/12 06:26:15;;;;;;;8.82;5.05;;;1.00;99.90;;;;;;5053080;28;20679;-47
2023/03/12 06:28:41;;;;;;;10.15;5.57;;;1.00;99.90;;;;;;5043340;28;20045;-48
2023/03/12 06:31:08;;;;;;;9.48;5.03;;;1.10;99.90;;;;;;5049430;28;20154;-46
2023/03/12 06:33:34;;;;;;;8.35;5.30;;;1.10;99.90;;;;;;5055518;28;20071;-42
2023/03/12 06:36:02;;;;;;;6.45;5.18;;;1.10;99.90;;;;;;5071507;28;20044;-46
2023/03/12 06:38:28;;;;;;;9.15;5.68;;;1.10;99.90;;;;;;5042645;28;20033;-41
2023/03/12 06:41:02;;;;;;;14.80;6.07;;;1.10;99.90;;;;;;5052888;28;20513;-43
2023/03/12 06:43:30;;;;;;;10.40;6.05;;;1.10;99.90;;;;;;5050941;28;20110;-45
2023/03/12 06:45:57;;;;;;;11.35;6.10;;;1.10;99.90;;;;;;5069926;28;20054;-46
2023/03/12 06:48:24;;;;;;;11.05;6.28;;;1.10;99.90;;;;;;5073216;28;20813;-39
2023/03/12 06:50:50;;;;;;;9.60;6.38;;;1.00;99.90;;;;;;5073216;28;20055;-47
2023/03/12 06:53:16;;;;;;;10.55;6.40;;;1.00;99.90;;;;;;5059543;28;20056;-43
2023/03/12 06:55:43;;;;;;;10.80;6.22;;;1.00;99.90;;;;;;5070704;28;20047;-41
2023/03/12 06:58:09;;;;;;;10.52;6.72;;;1.00;99.90;;;;;;5073802;28;20493;-48
2023/03/12 07:00:35;;;;;;;12.13;7.43;;;0.90;99.90;;;;;;5068997;28;20119;-46
2023/03/12 07:03:01;;;;;;;15.32;7.50;;;1.00;99.90;;;;;;5067151;28;20051;-48
2023/03/12 07:05:27;;;;;;;11.88;7.03;;;0.90;99.90;;;;;;5071983;28;20040;-41
2023/03/12 07:07:53;;;;;;;13.10;7.03;;;0.90;99.90;;;;;;5057153;28;20924;-42
2023/03/12 07:10:19;;;;;;;13.60;7.25;;;0.90;99.90;;;;;;5076154;28;20687;-41
2023/03/12 07:12:45;;;;;;;12.07;7.30;;;0.90;99.90;;;;;;5076927;28;20557;-40
2023/03/12 07:15:11;;;;;;;12.52;7.60;;;0.90;99.90;;;;;;5070857;28;20033;-47
2023/03/12 07:17:37;;;;;;;10.82;7.90;;;0.90;99.90;;;;;;5069068;28;20424;-46
2023/03/12 07:20:04;;;;;;;11.02;7.22;;;1.00;99.90;;;;;;5077225;28;20465;-42
2023/03/12 07:22:30;;;;;;;15.80;9.30;;;1.00;99.90;;;;;;5076341;28;20513;-43
2023/03/12 07:24:56;;;;;;;16.98;8.90;;;1.00;99.90;;;;;;5070093;28;20231;-44
2023/03/12 07:27:21;;;;;;;15.18;9.02;;;1.00;99.90;;;;;;5055370;28;20556;-47
2023/03/12 07:29:48;;;;;;;14.55;9.20;;;1.00;99.90;;;;;;5046470;28;20047;-44
2023/03/12 07:32:14;;;;;;;11.55;8.73;;;1.00;99.90;;;;;;5075993;28;20195;-45
2023/03/12 07:34:39;;;;;;;17.63;7.88;;;1.10;99.90;;;;;;5062549;28;20115;-43
2023/03/12 07:37:05;;;;;;;10.65;8.45;;;1.10;99.90;;;;;;5059764;28;20500;-46
2023/03/12 07:39:31;;;;;;;14.63;8.65;;;1.10;99.90;;;;;;5066289;28;20043;-48
2023/03/12 07:41:57;;;;;;;12.95;8.40;;;1.10;99.90;;;;;;5076578;28;20044;-45
2023/03/12 07:44:25;;;;;;;15.48;8.95;;;1.10;99.90;;;;;;5076415;28;20381;-44
2023/03/12 07:46:51;;;;;;;9.73;8.27;;;1.20;99.90;;;;;;5076944;28;20058;-46
2023/03/12 07:49:16;;;;;;;10.60;8.23;;;1.20;99.90;;;;;;5076983;28;20052;-43
2023/03/12 07:51:42;;;;;;;12.45;7.35;;;1.20;99.90;;;;;;5076561;28;20074;-42
2023/03/12 07:54:08;;;;;;;11.60;7.85;;;1.20;99.90;;;;;;5055027;28;20545;-46
2023/03/12 07:56:33;;;;;;;9.98;7.60;;;1.20;99.90;;;;;;5056399;28;20576;-41
2023/03/12 07:58:59;;;;;;;12.23;7.70;;;1.20;99.90;;;;;;5054219;28;20110;-46
2023/03/12 08:01:30;;;;;;;12.15;8.18;;;1.30;99.90;;;;;;5055639;28;20040;-45
2023/03/12 08:03:57;;;;;;;12.93;7.90;;;1.30;99.90;;;;;;5055329;28;20044;-49
2023/03/12 08:06:23;;;;;;;14.57;7.95;;;1.30;99.90;;;;;;5054581;28;20422;-44
2023/03/12 08:08:49;;;;;;;11.82;8.02;;;1.30;99.90;;;;;;5053945;28;20048;-45
2023/03/12 08:11:15;;;;;;;12.40;7.75;;;1.30;99.90;;;;;;5055432;28;20037;-43
2023/03/12 08:13:40;;;;;;;13.98;7.78;;;1.30;99.90;;;;;;5052938;28;20132;-45
2023/03/12 08:16:06;;;;;;;15.00;8.27;;;1.30;99.90;;;;;;5056622;28;20064;-47
2023/03/12 08:18:32;;;;;;;14.45;7.95;;;1.40;99.90;;;;;;5056034;28;20467;-46
2023/03/12 08:20:57;;;;;;;14.00;8.07;;;1.50;99.90;;;;;;5055399;28;20399;-45
2023/03/12 08:23:23;;;;;;;12.32;8.63;;;1.50;99.90;;;;;;5055152;28;20491;-49
2023/03/12 08:25:50;;;;;;;10.60;8.35;;;1.50;99.90;;;;;;5055756;28;20083;-45
2023/03/12 08:28:16;;;;;;;15.52;8.88;;;1.50;99.90;;;;;;5050321;28;20492;-45
2023/03/12 08:30:53;;;;;;;13.65;9.25;;;1.50;99.90;;;;;;5059316;28;20052;-43
2023/03/12 08:33:19;;;;;;;14.90;9.77;;;1.50;99.90;;;;;;5075032;28;20075;-52
2023/03/12 08:35:45;;;;;;;16.77;10.30;;;1.60;99.90;;;;;;5075497;28;20127;-45
2023/03/12 08:38:10;;;;;;;11.10;9.70;;;1.60;99.90;;;;;;5051692;28;20827;-42
2023/03/12 08:40:36;;;;;;;18.63;10.95;;;1.70;99.90;;;;;;5056562;28;20048;-47
2023/03/12 08:43:03;;;;;;;11.32;9.77;;;1.70;99.90;;;;;;5054754;28;20045;-42
2023/03/12 08:45:28;;;;;;;16.00;9.40;;;1.80;99.90;;;;;;5069407;28;20533;-43
2023/03/12 08:47:54;;;;;;;14.15;9.98;;;1.70;99.90;;;;;;5075483;28;20127;-45
2023/03/12 08:50:21;;;;;;;12.93;10.65;;;1.70;99.90;;;;;;5075919;28;20047;-49
2023/03/12 08:52:47;;;;;;;17.70;11.25;;;1.70;99.90;;;;;;5067351;28;20064;-44
2023/03/12 08:55:13;;;;;;;15.68;10.88;;;1.70;99.90;;;;;;5067364;28;20458;-40
2023/03/12 08:57:38;;;;;;;16.05;10.80;;;1.70;99.90;;;;;;5062478;28;20040;-47
2023/03/12 09:00:10;;;;;;;16.67;12.02;;;1.70;99.90;;;;;;5075436;28;20055;-48
2023/03/12 09:02:36;;;;;;;15.93;12.75;;;1.70;99.90;;;;;;5075310;28;20052;-45
2023/03/12 09:05:03;;;;;;;17.95;12.73;;;1.70;99.90;;;;;;5074568;28;20484;-47
2023/03/12 09:07:30;;;;;;;17.63;12.80;;;1.70;99.90;;;;;;5073763;28;20925;-44
2023/03/12 09:09:56;;;;;;;18.17;11.85;;;1.70;99.90;;;;;;5074537;28;20498;-40
2023/03/12 09:12:22;;;;;;;16.70;13.13;;;1.60;99.90;;;;;;5074698;28;20124;-41
2023/03/12 09:14:48;;;;;;;15.48;11.95;;;1.70;99.90;;;;;;5074385;28;20563;-44
2023/03/12 09:17:14;;;;;;;14.95;12.48;;;1.70;99.90;;;;;;5074760;28;20072;-42
2023/03/12 09:19:39;;;;;;;17.27;13.23;;;1.70;99.90;;;;;;5061479;28;20124;-45
2023/03/12 09:22:05;;;;;;;16.88;13.02;;;1.70;99.90;;;;;;5064650;28;20048;-44
2023/03/12 09:24:31;;;;;;;16.80;12.27;;;1.70;99.90;;;;;;5052391;28;20055;-44
2023/03/12 09:26:56;;;;;;;14.88;12.77;;;1.80;99.90;;;;;;5053744;28;20044;-43
2023/03/12 09:29:23;;;;;;;15.23;12.80;;;1.80;99.90;;;;;;5042097;28;20052;-45
2023/03/12 09:31:49;;;;;;;14.75;13.10;;;1.80;99.90;;;;;;5074932;28;20469;-39
2023/03/12 09:34:15;;;;;;;18.27;12.52;;;1.80;99.90;;;;;;5074416;28;20386;-46
2023/03/12 09:36:41;;;;;;;18.45;12.85;;;1.90;99.90;;;;;;5065359;28;20045;-46
2023/03/12 09:39:09;;;;;;;18.30;13.75;;;1.90;99.90;;;;;;5089714;27;20044;-41
2023/03/12 09:41:38;;;;;;;18.33;14.55;;;2.00;99.90;;;;;;5063897;28;20230;-39
2023/03/12 09:44:37;;;;;;;16.90;13.75;;;2.00;99.90;;;;;;5075194;28;20048;-44
2023/03/12 09:47:08;;;;;;;18.80;12.98;;;2.00;99.90;;;;;;5019424;28;20672;-43
2023/03/12 09:49:43;;;;;;;19.17;14.50;;;2.00;99.90;;;;;;4991341;28;20126;-43
2023/03/12 09:52:57;;;;;;;19.08;13.93;;;2.10;99.90;;;;;;4998941;28;20235;-47
2023/03/12 09:55:23;;;;;;;20.00;15.82;;;2.10;99.90;;;;;;5001987;28;20057;-42
2023/03/12 09:57:50;;;;;;;21.90;15.18;;;2.10;99.90;;;;;;5025199;28;20187;-39
2023/03/12 10:00:20;;;;;;;18.52;15.10;;;2.20;99.90;;;;;;5031354;28;20051;-47
2023/03/12 10:02:53;;;;;;;23.70;15.27;;;2.20;99.90;;;;;;5030372;28;20049;-48
2023/03/12 10:05:41;;;;;;;21.33;15.18;;;2.30;99.90;;;;;;5022639;28;20597;-47
2023/03/12 10:08:25;;;;;;;21.02;16.67;;;2.30;99.90;;;;;;5013953;28;20045;-50
2023/03/12 10:10:55;;;;;;;30.60;16.48;;;2.30;99.90;;;;;;5010285;28;20057;-42
2023/03/12 10:13:33;;;;;;;19.67;16.20;;;2.30;99.90;;;;;;5009835;28;20049;-48
2023/03/12 10:16:17;;;;;;;23.40;17.23;;;2.30;99.90;;;;;;5001880;28;20152;-45
2023/03/12 10:19:01;;;;;;;21.42;16.67;;;2.30;99.90;;;;;;4993834;28;20111;-41
2023/03/12 10:21:57;;;;;;;22.85;17.98;;;2.40;99.90;;;;;;4998952;28;20136;-49
2023/03/12 10:24:41;;;;;;;26.42;19.25;;;2.40;99.90;;;;;;5026542;28;20388;-45
2023/03/12 10:27:15;;;;;;;25.15;19.60;;;2.50;99.90;;;;;;5052071;28;20047;-47
2023/03/12 10:29:45;;;;;;;23.48;19.00;;;2.60;99.90;;;;;;5051351;28;20477;-46
2023/03/12 10:32:38;;;;;;;26.73;19.95;;;2.70;99.90;;;;;;5051293;28;20110;-39
2023/03/12 10:35:18;;;;;;;24.63;19.60;;;2.70;99.90;;;;;;5053416;28;20040;-44
2023/03/12 10:37:53;;;;;;;24.75;19.75;;;2.80;99.90;;;;;;5050641;28;20269;-42
2023/03/12 10:40:23;;;;;;;27.20;20.52;;;2.80;99.90;;;;;;5054681;28;20445;-42
2023/03/12 10:42:49;;;;;;;27.80;19.55;;;2.80;99.90;;;;;;5051984;28;20047;-44
2023/03/12 10:45:52;;;;;;;28.58;20.27;;;2.90;99.90;;;;;;5053550;28;20064;-42
2023/03/12 10:48:23;;;;;;;25.98;19.63;;;3.00;99.90;;;;;;5051785;28;20360;-43
2023/03/12 10:51:08;;;;;;;24.63;18.98;;;3.00;99.90;;;;;;5054360;28;20101;-45
2023/03/12 10:53:46;;;;;;;25.35;20.27;;;3.00;99.90;;;;;;5040295;28;20040;-46
2023/03/12 10:56:19;;;;;;;29.20;18.67;;;3.10;99.90;;;;;;5073445;28;20083;-48
2023/03/12 10:58:47;;;;;;;28.83;16.95;;;3.20;99.90;;;;;;5031690;28;20040;-48
2023/03/12 11:01:22;;;;;;;28.63;20.73;;;3.20;99.90;;;;;;5037691;28;20517;-47
2023/03/12 11:03:50;;;;;;;34.78;21.58;;;3.30;99.90;;;;;;5043007;28;20351;-42
2023/03/12 11:06:28;;;;;;;37.08;21.80;;;3.40;99.90;;;;;;5050239;28;20043;-41
2023/03/12 11:09:16;;;;;;;35.17;22.73;;;3.50;99.90;;;;;;5049619;28;20054;-48
2023/03/12 11:11:44;;;;;;;32.63;22.20;;;3.50;99.90;;;;;;5049747;28;20055;-50
2023/03/12 11:14:09;;;;;;;35.60;23.17;;;3.50;99.90;;;;;;5050104;28;20056;-49
2023/03/12 11:16:35;;;;;;;33.40;24.00;;;3.60;99.90;;;;;;5053596;28;20040;-42
2023/03/12 11:19:03;;;;;;;34.83;23.77;;;3.70;99.90;;;;;;5058623;28;20176;-42
2023/03/12 11:21:32;;;;;;;42.08;25.00;;;3.80;99.90;;;;;;5071143;28;20052;-46
2023/03/12 11:23:57;;;;;;;44.85;26.73;;;3.90;99.90;;;;;;5039201;28;20093;-43
2023/03/12 11:26:27;;;;;;;46.92;27.70;;;4.00;99.90;;;;;;5066293;28;20060;-41
2023/03/12 11:29:30;;;;;;;44.60;27.30;;;4.30;99.90;;;;;;5062201;28;20055;-47
2023/03/12 11:32:05;;;;;;;45.47;27.42;;;4.40;99.90;;;;;;5068588;28;20064;-41
2023/03/12 11:34:34;;;;;;;38.97;25.45;;;4.60;99.90;;;;;;5062015;28;20490;-40
2023/03/12 11:37:16;;;;;;;43.72;26.90;;;4.70;99.90;;;;;;5044216;28;20167;-45
2023/03/12 11:39:51;;;;;;;25.80;18.83;;;4.80;99.90;;;;;;5049257;28;20047;-49
2023/03/12 11:42:37;;;;;;;40.67;25.63;;;5.00;99.90;;;;;;5052998;28;20608;-41
2023/03/12 11:45:06;;;;;;;35.47;25.08;;;5.10;99.90;;;;;;5052499;28;20162;-51
2023/03/12 11:47:44;;;;;;;38.58;25.20;;;5.20;99.90;;;;;;5056398;28;20052;-47
2023/03/12 11:50:21;;;;;;;38.22;24.67;;;5.30;99.90;;;;;;5064305;28;20124;-49
2023/03/12 11:53:16;;;;;;;27.63;20.65;;;5.40;99.90;;;;;;5058880;28;20578;-41
2023/03/12 11:56:00;;;;;;;34.25;23.10;;;5.50;99.90;;;;;;5054215;28;20052;-47
2023/03/12 11:58:50;;;;;;;40.08;24.75;;;5.60;99.90;;;;;;5061758;28;20045;-42
2023/03/12 12:01:43;;;;;;;42.58;27.42;;;5.70;99.90;;;;;;5053837;28;20060;-44
2023/03/12 12:04:31;;;;;;;35.27;23.10;;;5.80;99.90;;;;;;5054915;28;20053;-49
2023/03/12 12:07:22;;;;;;;59.90;43.55;;;5.90;99.90;;;;;;5054456;28;20318;-45
2023/03/12 12:10:09;;;;;;;46.08;27.33;;;6.00;99.90;;;;;;5054869;28;20044;-46
2023/03/12 12:12:55;;;;;;;41.28;26.45;;;6.10;99.90;;;;;;5055766;28;20400;-41
2023/03/12 12:15:37;;;;;;;38.10;20.73;;;6.20;99.90;;;;;;5055957;28;20397;-44
2023/03/12 12:18:41;;;;;;;42.47;21.08;;;6.30;99.90;;;;;;5077274;28;20134;-42
2023/03/12 12:21:25;;;;;;;44.38;21.52;;;6.40;99.90;;;;;;5033261;28;20078;-50
2023/03/12 12:23:59;;;;;;;39.33;19.92;;;6.50;99.90;;;;;;5031483;28;20053;-44
2023/03/12 12:26:48;;;;;;;40.10;19.30;;;6.70;99.90;;;;;;5021257;28;20187;-47
2023/03/12 12:29:53;;;;;;;37.78;17.98;;;6.90;99.90;;;;;;5019382;28;20052;-41
2023/03/12 12:32:32;;;;;;;33.63;15.40;;;7.00;99.90;;;;;;5032881;28;20060;-47
2023/03/12 12:35:14;;;;;;;30.40;14.50;;;7.20;99.90;;;;;;5019088;28;20828;-45
2023/03/12 12:37:47;;;;;;;32.08;14.23;;;7.20;99.90;;;;;;5017940;28;20060;-47
2023/03/12 12:40:38;;;;;;;30.60;19.73;;;7.20;99.90;;;;;;5011528;28;20046;-47
2023/03/12 12:43:28;;;;;;;28.27;11.63;;;7.20;99.90;;;;;;5011645;28;20050;-45
2023/03/12 12:45:58;;;;;;;28.13;13.63;;;7.20;99.90;;;;;;5012406;28;20068;-45
2023/03/12 12:48:46;;;;;;;31.13;9.68;;;7.20;99.90;;;;;;5012524;28;20075;-46
2023/03/12 12:51:14;;;;;;;25.85;9.45;;;7.20;99.90;;;;;;5004313;28;20113;-45
2023/03/12 12:53:49;;;;;;;31.08;10.25;;;7.30;99.90;;;;;;5010872;28;20076;-47
2023/03/12 12:56:41;;;;;;;32.72;11.15;;;7.40;99.90;;;;;;5006711;28;20056;-47